.
WxDataArchive / Data Records for 2015-02-27
2015-02-26 February 2015 2015-02-28

Data Records for Friday, 27 February 2015

Time	Temp	Chill	HIndex	Humid	Dewpt	 Wind 	HiWind	WindDir	Rain 	Barom
-----	----	-----	------	-----	-----	------	------	-------	-----	-----
00:00	5.4	5.4	5.4	66	-3.5	0	0	---	0.00	30.401 
00:05	5.0	5.0	5.0	67	-3.5	0	0	---	0.00	30.401 
00:10	4.8	4.8	4.8	67	-3.7	0	0	---	0.00	30.401 
00:15	4.7	4.7	4.7	68	-3.5	0	0	---	0.00	30.408 
00:20	4.5	4.5	4.5	68	-3.7	0	0	---	0.00	30.408 
00:25	4.3	4.3	4.3	69	-3.6	0	0	---	0.00	30.408 
00:30	4.1	4.1	4.1	69	-3.8	0	0	---	0.00	30.408 
00:35	3.9	3.9	3.9	69	-4.0	0	0	---	0.00	30.408 
00:40	3.5	3.5	3.5	69	-4.4	0	0	---	0.00	30.408 
00:45	3.4	3.4	3.4	70	-4.1	0	0	---	0.00	30.410 
00:50	3.2	3.2	3.2	70	-4.3	0	0	---	0.00	30.410 
00:55	3.0	3.0	3.0	70	-4.5	0	0	---	0.00	30.410 
01:00	2.8	2.8	2.8	71	-4.4	0	0	---	0.00	30.416 
01:05	2.8	2.8	2.8	72	-4.1	0	0	---	0.00	30.416 
01:10	2.6	2.6	2.6	72	-4.3	0	0	---	0.00	30.416 
01:15	2.4	2.4	2.4	72	-4.5	0	0	---	0.00	30.421 
01:20	2.2	2.2	2.2	72	-4.7	0	0	---	0.00	30.421 
01:25	2.0	2.0	2.0	72	-4.9	0	0	---	0.00	30.421 
01:30	1.8	1.8	1.8	73	-4.8	0	0	---	0.00	30.421 
01:35	1.7	1.7	1.7	73	-4.9	0	0	---	0.00	30.421 
01:40	1.7	1.7	1.7	73	-4.9	0	0	---	0.00	30.421 
01:45	1.7	1.7	1.7	73	-4.9	0	0	---	0.00	30.423 
01:50	1.5	1.5	1.5	74	-4.8	0	0	---	0.00	30.423 
01:55	1.3	1.3	1.3	74	-5.0	0	0	---	0.00	30.423 
02:00	1.1	1.1	1.1	74	-5.2	0	0	---	0.00	30.429 
02:05	0.9	0.9	0.9	74	-5.4	0	0	---	0.00	30.429 
02:10	0.9	0.9	0.9	74	-5.4	0	0	---	0.00	30.429 
02:15	0.7	0.7	0.7	75	-5.3	0	0	---	0.00	30.431 
02:20	0.7	0.7	0.7	75	-5.3	0	0	---	0.00	30.431 
02:25	0.5	0.5	0.5	75	-5.5	0	0	---	0.00	30.431 
02:30	0.1	0.1	0.1	75	-5.9	0	0	---	0.00	30.435 
02:35	0.1	0.1	0.1	75	-5.9	0	0	---	0.00	30.435 
02:40	0.1	0.1	0.1	75	-5.9	0	0	---	0.00	30.435 
02:45	0.1	0.1	0.1	76	-5.6	0	0	---	0.00	30.444 
02:50	0.1	0.1	0.1	76	-5.6	0	0	---	0.00	30.444 
02:55	0.0	0.0	0.0	76	-5.7	0	0	---	0.00	30.444 
03:00	0.0	0.0	0.0	76	-5.7	0	0	---	0.00	30.447 
03:05	0.1	0.1	0.1	77	-5.4	0	0	---	0.00	30.447 
03:10	0.3	0.3	0.3	77	-5.2	0	0	---	0.00	30.447 
03:15	0.3	0.3	0.3	77	-5.2	0	0	---	0.00	30.448 
03:20	0.3	0.3	0.3	77	-5.2	0	0	---	0.00	30.448 
03:25	0.5	0.5	0.5	77	-5.0	0	0	---	0.00	30.448 
03:30	0.5	0.5	0.5	77	-5.0	0	0	---	0.00	30.454 
03:35	0.7	0.7	0.7	77	-4.8	0	0	---	0.00	30.454 
03:40	0.9	0.9	0.9	77	-4.6	0	0	---	0.00	30.454 
03:45	1.1	1.1	1.1	77	-4.4	0	0	---	0.00	30.460 
03:50	1.1	1.1	1.1	76	-4.7	0	0	---	0.00	30.460 
03:55	1.1	1.1	1.1	76	-4.7	0	0	---	0.00	30.460 
04:00	1.1	1.1	1.1	75	-4.9	0	0	---	0.00	30.463 
04:05	0.9	0.9	0.9	75	-5.1	0	0	---	0.00	30.463 
04:10	0.7	0.7	0.7	74	-5.6	0	0	---	0.00	30.463 
04:15	0.5	0.5	0.5	74	-5.8	0	0	---	0.00	30.465 
04:20	0.1	0.1	0.1	74	-6.2	0	0	---	0.00	30.465 
04:25	0.0	0.0	0.0	73	-6.6	0	0	---	0.00	30.465 
04:30	-0.2	-0.2	-0.2	73	-6.8	0	0	---	0.00	30.470 
04:35	-0.4	-0.4	-0.4	73	-6.9	0	0	---	0.00	30.470 
04:40	-0.4	-0.4	-0.4	73	-6.9	0	0	---	0.00	30.470 
04:45	-0.4	-0.4	-0.4	73	-6.9	0	0	---	0.00	30.481 
04:50	-0.6	-0.6	-0.6	73	-7.1	0	0	---	0.00	30.481 
04:55	-0.8	-0.8	-0.8	73	-7.3	0	0	---	0.00	30.481 
05:00	-1.0	-1.0	-1.0	73	-7.5	0	0	---	0.00	30.488 
05:05	-1.0	-1.0	-1.0	74	-7.3	0	0	---	0.00	30.488 
05:10	-1.0	-1.0	-1.0	74	-7.3	0	0	---	0.00	30.488 
05:15	-1.2	-1.2	-1.2	74	-7.4	0	0	---	0.00	30.498 
05:20	-1.2	-1.2	-1.2	74	-7.4	0	0	---	0.00	30.498 
05:25	-1.4	-1.4	-1.4	74	-7.6	0	0	---	0.00	30.498 
05:30	-1.6	-1.6	-1.6	74	-7.8	0	0	---	0.00	30.501 
05:35	-1.8	-1.8	-1.8	74	-8.0	0	0	---	0.00	30.501 
05:40	-1.8	-1.8	-1.8	74	-8.0	0	0	---	0.00	30.501 
05:45	-2.0	-2.0	-2.0	74	-8.2	0	0	---	0.00	30.512 
05:50	-2.0	-2.0	-2.0	74	-8.2	0	0	---	0.00	30.512 
05:55	-2.2	-2.2	-2.2	74	-8.4	0	0	---	0.00	30.512 
06:00	-2.2	-2.2	-2.2	74	-8.4	0	0	---	0.00	30.517 
06:05	-2.2	-2.2	-2.2	75	-8.1	0	0	---	0.00	30.517 
06:10	-2.2	-2.2	-2.2	75	-8.1	0	0	---	0.00	30.517 
06:15	-2.4	-2.4	-2.4	75	-8.3	0	0	---	0.00	30.522 
06:20	-2.6	-2.6	-2.6	75	-8.5	0	0	---	0.00	30.522 
06:25	-2.8	-2.8	-2.8	75	-8.7	0	0	---	0.00	30.522 
06:30	-3.1	-3.1	-3.1	75	-9.0	0	0	---	0.00	30.527 
06:35	-3.3	-3.3	-3.3	75	-9.2	0	0	---	0.00	30.527 
06:40	-3.5	-3.5	-3.5	75	-9.4	0	0	---	0.00	30.527 
06:45	-3.7	-3.7	-3.7	75	-9.6	0	0	---	0.00	30.533 
06:50	-3.9	-3.9	-3.9	75	-9.8	0	0	---	0.00	30.533 
06:55	-3.9	-3.9	-3.9	75	-9.8	0	0	---	0.00	30.533 
07:00	-3.9	-3.9	-3.9	75	-9.8	0	0	---	0.00	30.534 
07:05	-4.1	-4.1	-4.1	75	-10.0	0	0	---	0.00	30.534 
07:10	-4.1	-4.1	-4.1	76	-9.7	0	0	---	0.00	30.534 
07:15	-3.9	-3.9	-3.9	76	-9.5	0	0	---	0.00	30.541 
07:20	-3.9	-3.9	-3.9	76	-9.5	0	0	---	0.00	30.541 
07:25	-3.9	-3.9	-3.9	76	-9.5	0	0	---	0.00	30.541 
07:30	-3.9	-3.9	-3.9	76	-9.5	0	0	---	0.00	30.547 
07:35	-3.9	-3.9	-3.9	76	-9.5	0	0	---	0.00	30.547 
07:40	-3.9	-3.9	-3.9	76	-9.5	0	0	---	0.00	30.547 
07:45	-3.5	-3.5	-3.5	77	-8.9	0	0	---	0.00	30.551 
07:50	-2.8	-2.8	-2.8	77	-8.2	0	0	---	0.00	30.551 
07:55	-2.2	-2.2	-2.2	78	-7.3	0	0	---	0.00	30.551 
08:00	-1.4	-1.4	-1.4	78	-6.6	0	0	---	0.00	30.560 
08:05	-0.6	-0.6	-0.6	78	-5.8	0	0	---	0.00	30.560 
08:10	0.0	0.0	0.0	78	-5.2	0	0	---	0.00	30.560 
08:15	0.3	0.3	0.3	78	-4.9	0	0	---	0.00	30.565 
08:20	0.9	0.9	0.9	77	-4.6	0	0	---	0.00	30.565 
08:25	1.3	1.3	1.3	77	-4.2	0	0	---	0.00	30.565 
08:30	1.7	1.7	1.7	77	-3.8	0	0	---	0.00	30.566 
08:35	2.0	2.0	2.0	76	-3.8	0	0	---	0.00	30.566 
08:40	2.4	2.4	2.4	75	-3.7	0	0	---	0.00	30.566 
08:45	3.0	3.0	3.0	74	-3.4	0	1	338	0.00	30.576 
08:50	3.4	3.4	3.4	73	-3.3	0	1	338	0.00	30.576 
08:55	3.7	3.7	3.7	72	-3.3	0	0	---	0.00	30.576 
09:00	4.3	4.3	4.3	70	-3.3	0	1	338	0.00	30.582 
09:05	4.7	4.7	4.7	69	-3.2	0	1	338	0.00	30.582 
09:10	5.0	5.0	5.0	67	-3.5	0	1	338	0.00	30.582 
09:15	5.6	5.6	5.6	66	-3.3	0	1	338	0.00	30.588 
09:20	6.1	6.1	6.1	65	-3.1	0	1	338	0.00	30.588 
09:25	6.9	6.9	6.9	65	-2.3	0	1	338	0.00	30.588 
09:30	8.4	8.4	8.4	62	-1.9	0	1	338	0.00	30.586 
09:35	9.7	9.7	9.7	57	-2.4	0	1	338	0.00	30.586 
09:40	10.7	10.7	10.7	55	-2.2	0	1	338	0.00	30.586 
09:45	10.7	10.7	10.7	54	-2.6	0	1	338	0.00	30.585 
09:50	10.9	10.9	10.9	53	-2.8	0	1	338	0.00	30.585 
09:55	11.2	11.2	11.2	52	-3.0	0	1	338	0.00	30.585 
10:00	11.6	11.6	11.6	52	-2.6	0	1	338	0.00	30.589 
10:05	11.9	11.9	11.9	50	-3.1	1	3	338	0.00	30.589 
10:10	12.4	12.4	12.4	49	-3.1	0	2	338	0.00	30.589 
10:15	12.8	12.8	12.8	48	-3.1	1	3	338	0.00	30.597 
10:20	13.3	13.3	13.3	46	-3.6	0	3	338	0.00	30.597 
10:25	13.6	13.6	13.6	45	-3.7	1	3	338	0.00	30.597 
10:30	13.8	13.8	13.8	44	-4.0	1	4	338	0.00	30.599 
10:35	14.1	14.1	14.1	43	-4.2	1	3	292	0.00	30.599 
10:40	14.4	14.4	14.4	43	-4.0	1	3	292	0.00	30.599 
10:45	14.8	14.8	14.8	41	-4.6	1	3	292	0.00	30.600 
10:50	15.1	15.1	15.1	40	-4.8	1	3	292	0.00	30.600 
10:55	15.2	15.2	15.2	39	-5.3	1	3	270	0.00	30.600 
11:00	15.6	15.6	15.6	40	-4.4	1	3	270	0.00	30.605 
11:05	15.7	15.7	15.7	39	-4.8	1	3	292	0.00	30.605 
11:10	16.2	16.2	16.2	39	-4.4	0	2	292	0.00	30.605 
11:15	16.5	16.5	16.5	39	-4.1	1	3	292	0.00	30.616 
11:20	16.7	16.7	16.7	39	-3.9	0	2	292	0.00	30.616 
11:25	16.7	16.7	16.7	38	-4.4	1	5	292	0.00	30.616 
11:30	16.5	16.5	16.5	36	-5.7	1	4	292	0.00	30.619 
11:35	16.9	16.9	16.9	38	-4.3	1	3	292	0.00	30.619 
11:40	16.9	16.9	16.9	36	-5.4	0	2	292	0.00	30.619 
11:45	17.0	17.0	17.0	36	-5.3	0	2	292	0.00	30.627 
11:50	17.3	17.3	17.3	38	-3.9	0	2	292	0.00	30.627 
11:55	17.5	17.5	17.5	35	-5.4	1	4	315	0.00	30.627 
12:00	17.2	17.2	17.2	35	-5.7	1	5	315	0.00	30.633 
12:05	17.2	17.2	17.2	36	-5.1	1	5	315	0.00	30.633 
12:10	17.2	17.2	17.2	35	-5.7	1	3	315	0.00	30.633 
12:15	17.0	17.0	17.0	35	-5.9	1	4	338	0.00	30.637 
12:20	17.2	17.2	17.2	36	-5.1	1	4	338	0.00	30.637 
12:25	17.3	17.3	17.3	37	-4.5	1	5	315	0.00	30.637 
12:30	17.5	17.5	17.5	37	-4.3	1	5	315	0.00	30.639 
12:35	17.8	17.8	17.8	37	-4.0	1	4	270	0.00	30.639 
12:40	17.7	17.7	17.7	36	-4.7	1	4	0	0.00	30.639 
12:45	17.7	17.7	17.7	37	-4.1	1	5	0	0.00	30.638 
12:50	17.8	17.8	17.8	38	-3.5	0	2	338	0.00	30.638 
12:55	18.0	18.0	18.0	38	-3.3	1	3	338	0.00	30.638 
13:00	17.8	17.8	17.8	37	-4.0	1	4	315	0.00	30.636 
13:05	18.0	18.0	18.0	37	-3.8	2	4	315	0.00	30.636 
13:10	17.8	17.8	17.8	37	-4.0	1	4	0	0.00	30.636 
13:15	18.4	18.4	18.4	38	-2.9	1	4	292	0.00	30.637 
13:20	18.6	18.6	18.6	38	-2.7	1	3	292	0.00	30.637 
13:25	18.8	18.8	18.8	38	-2.6	1	3	292	0.00	30.637 
13:30	19.2	19.2	19.2	38	-2.2	1	2	292	0.00	30.630 
13:35	19.2	19.2	19.2	37	-2.8	2	5	315	0.00	30.630 
13:40	19.2	19.2	19.2	37	-2.8	1	3	270	0.00	30.630 
13:45	19.4	19.4	19.4	37	-2.6	1	3	270	0.00	30.628 
13:50	19.2	19.2	19.2	37	-2.8	2	3	270	0.00	30.628 
13:55	18.9	18.9	18.9	36	-3.6	1	5	270	0.00	30.628 
14:00	18.9	18.9	18.9	38	-2.5	1	3	315	0.00	30.626 
14:05	19.2	19.2	19.2	38	-2.2	1	3	315	0.00	30.626 
14:10	19.4	19.4	19.4	36	-3.1	1	4	248	0.00	30.626 
14:15	19.1	19.1	19.1	35	-4.0	1	4	270	0.00	30.628 
14:20	18.9	18.9	18.9	37	-3.0	1	3	270	0.00	30.628 
14:25	19.1	19.1	19.1	36	-3.4	1	4	292	0.00	30.628 
14:30	19.2	19.2	19.2	39	-1.6	1	3	292	0.00	30.631 
14:35	19.4	19.4	19.4	37	-2.6	1	4	292	0.00	30.631 
14:40	19.4	19.4	19.4	37	-2.6	1	3	292	0.00	30.631 
14:45	19.5	19.5	19.5	36	-3.1	1	4	292	0.00	30.630 
14:50	19.4	19.4	19.4	37	-2.6	1	3	338	0.00	30.630 
14:55	19.2	19.2	19.2	37	-2.8	1	5	315	0.00	30.630 
15:00	19.2	19.2	19.2	37	-2.8	1	4	315	0.00	30.636 
15:05	19.4	19.4	19.4	36	-3.1	1	5	315	0.00	30.636 
15:10	19.5	19.5	19.5	36	-3.1	1	2	315	0.00	30.636 
15:15	19.9	19.9	19.9	38	-1.6	1	4	292	0.00	30.636 
15:20	19.5	19.5	19.5	36	-3.1	1	2	292	0.00	30.636 
15:25	19.4	19.4	19.4	37	-2.6	1	3	292	0.00	30.636 
15:30	19.4	19.4	19.4	36	-3.1	1	2	292	0.00	30.636 
15:35	19.5	19.5	19.5	38	-1.9	1	7	292	0.00	30.636 
15:40	19.7	19.7	19.7	38	-1.7	0	2	338	0.00	30.636 
15:45	19.4	19.4	19.4	37	-2.6	1	4	292	0.00	30.636 
15:50	19.1	19.1	19.1	37	-2.8	0	3	315	0.00	30.636 
15:55	18.9	18.9	18.9	38	-2.5	0	2	315	0.00	30.636 
16:00	18.9	18.9	18.9	38	-2.5	0	2	315	0.00	30.637 
16:05	19.2	19.2	19.2	38	-2.2	0	3	315	0.00	30.637 
16:10	19.4	19.4	19.4	38	-2.0	0	3	315	0.00	30.637 
16:15	19.2	19.2	19.2	39	-1.6	0	3	315	0.00	30.641 
16:20	18.8	18.8	18.8	38	-2.6	1	4	292	0.00	30.641 
16:25	18.1	18.1	18.1	39	-2.6	0	2	292	0.00	30.641 
16:30	18.0	18.0	18.0	40	-2.2	0	1	292	0.00	30.642 
16:35	17.8	17.8	17.8	40	-2.4	0	3	292	0.00	30.642 
16:40	17.7	17.7	17.7	40	-2.5	0	2	292	0.00	30.642 
16:45	17.7	17.7	17.7	41	-2.0	0	3	292	0.00	30.641 
16:50	17.8	17.8	17.8	41	-1.9	0	1	292	0.00	30.641 
16:55	18.0	18.0	18.0	41	-1.7	0	1	292	0.00	30.641 
17:00	18.1	18.1	18.1	40	-2.1	0	2	292	0.00	30.644 
17:05	18.3	18.3	18.3	40	-1.9	0	2	292	0.00	30.644 
17:10	18.3	18.3	18.3	41	-1.4	0	1	292	0.00	30.644 
17:15	18.3	18.3	18.3	41	-1.4	0	1	292	0.00	30.643 
17:20	18.1	18.1	18.1	41	-1.6	0	2	292	0.00	30.643 
17:25	18.1	18.1	18.1	42	-1.1	0	1	292	0.00	30.643 
17:30	18.0	18.0	18.0	43	-0.7	0	2	292	0.00	30.651 
17:35	17.8	17.8	17.8	42	-1.4	0	1	292	0.00	30.651 
17:40	17.8	17.8	17.8	43	-0.9	0	1	292	0.00	30.651 
17:45	17.8	17.8	17.8	42	-1.4	0	1	292	0.00	30.654 
17:50	17.8	17.8	17.8	43	-0.9	0	2	292	0.00	30.654 
17:55	17.5	17.5	17.5	44	-0.7	0	1	292	0.00	30.654 
18:00	17.3	17.3	17.3	44	-0.8	0	2	292	0.00	30.657 
18:05	17.2	17.2	17.2	45	-0.4	0	1	292	0.00	30.657 
18:10	17.0	17.0	17.0	45	-0.6	0	1	292	0.00	30.657 
18:15	16.7	16.7	16.7	45	-0.9	0	3	292	0.00	30.657 
18:20	16.4	16.4	16.4	46	-0.7	0	1	292	0.00	30.657 
18:25	16.2	16.2	16.2	46	-0.9	0	1	292	0.00	30.657 
18:30	15.9	15.9	15.9	46	-1.2	0	0	---	0.00	30.652 
18:35	15.7	15.7	15.7	47	-0.9	0	1	292	0.00	30.652 
18:40	15.4	15.4	15.4	47	-1.2	0	0	---	0.00	30.652 
18:45	15.2	15.2	15.2	48	-0.9	0	0	---	0.00	30.660 
18:50	15.1	15.1	15.1	49	-0.6	0	0	---	0.00	30.660 
18:55	14.9	14.9	14.9	49	-0.8	0	0	---	0.00	30.660 
19:00	14.6	14.6	14.6	50	-0.6	0	0	---	0.00	30.662 
19:05	14.4	14.4	14.4	50	-0.8	0	0	---	0.00	30.662 
19:10	14.1	14.1	14.1	51	-0.7	0	0	---	0.00	30.662 
19:15	14.0	14.0	14.0	51	-0.8	0	0	---	0.00	30.669 
19:20	13.8	13.8	13.8	51	-0.9	0	0	---	0.00	30.669 
19:25	13.5	13.5	13.5	52	-0.8	0	0	---	0.00	30.669 
19:30	13.1	13.1	13.1	52	-1.2	0	0	---	0.00	30.676 
19:35	12.6	12.6	12.6	53	-1.2	0	0	---	0.00	30.676 
19:40	12.1	12.1	12.1	53	-1.7	0	0	---	0.00	30.676 
19:45	11.7	11.7	11.7	54	-1.7	0	0	---	0.00	30.682 
19:50	11.4	11.4	11.4	55	-1.6	0	0	---	0.00	30.682 
19:55	11.2	11.2	11.2	56	-1.4	0	0	---	0.00	30.682 
20:00	10.9	10.9	10.9	57	-1.3	0	0	---	0.00	30.686 
20:05	10.5	10.5	10.5	57	-1.7	0	0	---	0.00	30.686 
20:10	10.2	10.2	10.2	58	-1.6	0	0	---	0.00	30.686 
20:15	9.9	9.9	9.9	58	-1.9	0	0	---	0.00	30.686 
20:20	9.5	9.5	9.5	59	-1.9	0	0	---	0.00	30.686 
20:25	9.2	9.2	9.2	59	-2.2	0	0	---	0.00	30.686 
20:30	8.8	8.8	8.8	60	-2.2	0	0	---	0.00	30.690 
20:35	8.6	8.6	8.6	61	-2.1	0	0	---	0.00	30.690 
20:40	8.4	8.4	8.4	62	-1.9	0	0	---	0.00	30.690 
20:45	8.3	8.3	8.3	62	-2.0	0	0	---	0.00	30.695 
20:50	8.3	8.3	8.3	62	-2.0	0	0	---	0.00	30.695 
20:55	8.3	8.3	8.3	63	-1.7	0	0	---	0.00	30.695 
21:00	8.3	8.3	8.3	63	-1.7	0	0	---	0.00	30.704 
21:05	8.4	8.4	8.4	63	-1.6	0	0	---	0.00	30.704 
21:10	8.3	8.3	8.3	63	-1.7	0	0	---	0.00	30.704 
21:15	8.1	8.1	8.1	63	-1.9	0	0	---	0.00	30.704 
21:20	7.9	7.9	7.9	64	-1.7	0	0	---	0.00	30.704 
21:25	7.7	7.7	7.7	64	-1.9	0	0	---	0.00	30.704 
21:30	7.7	7.7	7.7	65	-1.6	0	0	---	0.00	30.713 
21:35	8.1	8.1	8.1	65	-1.2	0	0	---	0.00	30.713 
21:40	8.4	8.4	8.4	65	-0.9	0	0	---	0.00	30.713 
21:45	8.6	8.6	8.6	65	-0.7	0	0	---	0.00	30.715 
21:50	8.4	8.4	8.4	64	-1.2	0	0	---	0.00	30.715 
21:55	8.4	8.4	8.4	64	-1.2	0	0	---	0.00	30.715 
22:00	8.1	8.1	8.1	64	-1.5	0	0	---	0.00	30.716 
22:05	7.9	7.9	7.9	64	-1.7	0	0	---	0.00	30.716 
22:10	7.4	7.4	7.4	64	-2.2	0	0	---	0.00	30.716 
22:15	7.0	7.0	7.0	64	-2.6	0	0	---	0.00	30.714 
22:20	6.7	6.7	6.7	64	-2.9	0	0	---	0.00	30.714 
22:25	6.3	6.3	6.3	65	-2.9	0	0	---	0.00	30.714 
22:30	6.0	6.0	6.0	65	-3.2	0	0	---	0.00	30.714 
22:35	5.8	5.8	5.8	66	-3.1	0	0	---	0.00	30.714 
22:40	5.4	5.4	5.4	67	-3.1	0	0	---	0.00	30.714 
22:45	5.0	5.0	5.0	67	-3.5	0	0	---	0.00	30.715 
22:50	4.7	4.7	4.7	67	-3.8	0	0	---	0.00	30.715 
22:55	4.3	4.3	4.3	68	-3.9	0	0	---	0.00	30.715 
23:00	4.1	4.1	4.1	68	-4.1	0	0	---	0.00	30.715 
23:05	3.9	3.9	3.9	68	-4.3	0	0	---	0.00	30.715 
23:10	3.9	3.9	3.9	69	-4.0	0	0	---	0.00	30.715 
23:15	3.9	3.9	3.9	69	-4.0	0	0	---	0.00	30.713 
23:20	3.7	3.7	3.7	70	-3.9	0	0	---	0.00	30.713 
23:25	3.5	3.5	3.5	70	-4.1	0	0	---	0.00	30.713 
23:30	3.5	3.5	3.5	70	-4.1	0	0	---	0.00	30.714 
23:35	3.4	3.4	3.4	71	-3.9	0	0	---	0.00	30.714 
23:40	3.0	3.0	3.0	71	-4.2	0	0	---	0.00	30.714 
23:45	2.8	2.8	2.8	71	-4.4	0	0	---	0.00	30.716 
23:50	2.6	2.6	2.6	72	-4.3	0	0	---	0.00	30.716 
23:55	2.6	2.6	2.6	72	-4.3	0	0	---	0.00	30.716 

CoCoRaHS
IN-AL-39
A2 Web Hosting
Creative Commons License
GoDaddy
search engine by freefind advanced

loaded 2018-11-12 19:30:11 • last modified 2010-11-18 10:43:29
Privacy PolicyDisclaimer
• wx.awcolley.com is powered by PmWiki v.2002016 •
• all content (unless otherwise noted) © 2018 A W Colley